createdAt,value
2018-08-07T00:01:10.608Z,64.72
2018-08-07T00:03:37.754Z,65.10
2018-08-07T00:06:04.063Z,65.18
2018-08-07T00:08:30.423Z,65.45
2018-08-07T00:10:56.727Z,65.15
2018-08-07T00:13:23.039Z,65.39
2018-08-07T00:15:49.357Z,65.68
2018-08-07T00:18:15.664Z,65.63
2018-08-07T00:20:41.980Z,65.42
2018-08-07T00:23:08.312Z,64.69
2018-08-07T00:25:34.625Z,64.58
2018-08-07T00:28:00.941Z,64.53
2018-08-07T00:30:27.266Z,64.50
2018-08-07T00:32:53.577Z,64.77
2018-08-07T00:35:19.906Z,65.19
2018-08-07T00:37:46.274Z,65.26
2018-08-07T00:40:12.572Z,64.98
2018-08-07T00:42:38.911Z,65.34
2018-08-07T00:45:05.238Z,65.71
2018-08-07T00:47:31.553Z,65.74
2018-08-07T00:49:57.872Z,65.97
2018-08-07T00:52:24.178Z,65.77
2018-08-07T00:54:50.533Z,65.98
2018-08-07T00:57:16.843Z,65.90
2018-08-07T00:59:43.151Z,66.00
2018-08-07T01:02:09.460Z,65.72
2018-08-07T01:04:35.808Z,65.73
2018-08-07T01:07:02.120Z,66.30
2018-08-07T01:09:28.431Z,66.58
2018-08-07T01:11:54.784Z,66.63
2018-08-07T01:14:21.083Z,66.94
2018-08-07T01:16:47.433Z,67.33
2018-08-07T01:19:13.784Z,67.82
2018-08-07T01:21:40.127Z,68.10
2018-08-07T01:24:06.436Z,68.14
2018-08-07T01:26:32.745Z,68.13
2018-08-07T01:28:59.095Z,68.18
2018-08-07T01:31:25.405Z,68.25
2018-08-07T01:33:51.717Z,68.26
2018-08-07T01:36:18.063Z,68.86
2018-08-07T01:38:44.379Z,68.75
2018-08-07T01:41:10.689Z,69.11
2018-08-07T01:43:37.044Z,69.28
2018-08-07T01:46:03.352Z,69.75
2018-08-07T01:48:29.668Z,70.17
2018-08-07T01:50:55.975Z,70.45
2018-08-07T01:53:22.290Z,70.36
2018-08-07T01:55:48.605Z,70.20
2018-08-07T01:58:14.911Z,70.48
2018-08-07T02:00:41.220Z,70.73
2018-08-07T02:03:07.530Z,70.96
2018-08-07T02:05:33.839Z,70.65
2018-08-07T02:08:00.149Z,70.60
2018-08-07T02:10:26.454Z,71.15
2018-08-07T02:12:52.766Z,70.34
2018-08-07T02:15:19.077Z,70.43
2018-08-07T02:17:45.380Z,70.89
2018-08-07T02:20:11.693Z,70.87
2018-08-07T02:22:38.004Z,70.82
2018-08-07T02:25:04.313Z,71.08
2018-08-07T02:27:30.661Z,71.37
2018-08-07T02:29:57.014Z,69.14
2018-08-07T02:32:23.318Z,67.86
2018-08-07T02:34:49.636Z,68.11
2018-08-07T02:37:15.949Z,68.34
2018-08-07T02:39:42.307Z,68.39
2018-08-07T02:42:08.617Z,69.58
2018-08-07T02:44:34.926Z,70.05
2018-08-07T02:47:01.283Z,70.67
2018-08-07T02:49:27.600Z,71.08
2018-08-07T02:51:53.953Z,71.35
2018-08-07T02:54:20.271Z,72.00
2018-08-07T02:56:46.629Z,72.08
2018-08-07T02:59:12.944Z,71.86
2018-08-07T03:01:39.247Z,72.00
2018-08-07T03:04:05.557Z,72.43
2018-08-07T03:06:31.867Z,72.41
2018-08-07T03:08:58.181Z,72.33
2018-08-07T03:11:24.530Z,72.34
2018-08-07T03:13:50.841Z,72.71
2018-08-07T03:16:17.195Z,72.76
2018-08-07T03:18:43.501Z,72.74
2018-08-07T03:21:09.860Z,72.90
2018-08-07T03:23:36.160Z,73.17
2018-08-07T03:26:02.514Z,73.78
2018-08-07T03:28:28.821Z,73.79
2018-08-07T03:30:55.132Z,73.22
2018-08-07T03:33:21.441Z,74.08
2018-08-07T03:35:47.802Z,74.42
2018-08-07T03:38:14.110Z,74.55
2018-08-07T03:40:40.415Z,74.52
2018-08-07T03:43:06.730Z,74.28
2018-08-07T03:45:33.036Z,74.60
2018-08-07T03:47:59.352Z,75.04
2018-08-07T03:50:25.659Z,74.77
2018-08-07T03:52:51.968Z,75.42
2018-08-07T03:55:18.276Z,75.68
2018-08-07T03:57:44.585Z,75.48
2018-08-07T04:00:10.898Z,75.49
2018-08-07T04:02:37.207Z,75.51
2018-08-07T04:05:03.582Z,75.56
2018-08-07T04:07:29.823Z,75.65
2018-08-07T04:09:56.136Z,75.75
2018-08-07T04:12:22.451Z,75.65
2018-08-07T04:14:48.760Z,75.71
2018-08-07T04:17:15.068Z,75.93
2018-08-07T04:19:41.380Z,75.64
2018-08-07T04:22:07.692Z,75.89
2018-08-07T04:24:34.006Z,75.77
2018-08-07T04:27:00.317Z,76.31
2018-08-07T04:29:26.619Z,76.64
2018-08-07T04:31:52.942Z,76.79
2018-08-07T04:34:19.292Z,78.76
2018-08-07T04:36:45.559Z,80.08
2018-08-07T04:39:11.867Z,81.31
2018-08-07T04:41:38.176Z,82.22
2018-08-07T04:44:04.484Z,81.64
2018-08-07T04:46:30.792Z,81.22
2018-08-07T04:48:57.117Z,80.99
2018-08-07T04:51:23.428Z,80.16
2018-08-07T04:53:49.774Z,80.19
2018-08-07T04:56:16.085Z,79.85
2018-08-07T04:58:42.439Z,82.42
2018-08-07T05:01:08.753Z,84.31
2018-08-07T05:03:35.066Z,84.35
2018-08-07T05:06:01.376Z,86.72
2018-08-07T05:08:27.690Z,87.86
2018-08-07T05:10:54.005Z,88.34
2018-08-07T05:13:20.312Z,90.16
2018-08-07T05:15:46.629Z,90.68
2018-08-07T05:18:12.938Z,90.83
2018-08-07T05:20:39.261Z,90.29
2018-08-07T05:23:05.614Z,89.46
2018-08-07T05:25:31.924Z,88.42
2018-08-07T05:27:58.238Z,89.23
2018-08-07T05:30:24.589Z,89.46
2018-08-07T05:32:50.902Z,91.06
2018-08-07T05:35:17.219Z,90.83
2018-08-07T05:37:43.534Z,89.01
2018-08-07T05:40:09.842Z,91.25
2018-08-07T05:42:36.189Z,91.29
2018-08-07T05:45:02.465Z,92.05
2018-08-07T05:47:28.782Z,93.22
2018-08-07T05:49:55.098Z,92.32
2018-08-07T05:52:21.427Z,91.97
2018-08-07T05:54:47.734Z,92.25
2018-08-07T05:57:14.043Z,92.32
2018-08-07T05:59:40.352Z,91.05
2018-08-07T06:02:06.680Z,92.00
2018-08-07T06:04:32.995Z,91.20
2018-08-07T06:06:59.308Z,90.40
2018-08-07T06:09:25.611Z,90.86
2018-08-07T06:11:51.920Z,90.82
2018-08-07T06:14:18.228Z,91.59
2018-08-07T06:16:44.537Z,88.25
2018-08-07T06:19:10.887Z,86.91
2018-08-07T06:21:37.212Z,86.47
2018-08-07T06:24:03.522Z,88.17
2018-08-07T06:26:29.831Z,88.46
2018-08-07T06:28:56.144Z,85.80
2018-08-07T06:31:22.495Z,84.32
2018-08-07T06:33:48.767Z,82.49
2018-08-07T06:36:15.073Z,83.30
2018-08-07T06:38:41.381Z,87.43
2018-08-07T06:41:07.696Z,84.80
2018-08-07T06:43:34.001Z,86.88
2018-08-07T06:46:00.312Z,81.64
2018-08-07T06:48:26.620Z,84.20
2018-08-07T06:50:52.926Z,84.77
2018-08-07T06:53:19.237Z,85.41
2018-08-07T06:55:45.548Z,85.69
2018-08-07T06:58:11.861Z,85.21
2018-08-07T07:00:38.185Z,85.06
2018-08-07T07:03:04.491Z,85.54
2018-08-07T07:05:30.799Z,83.02
2018-08-07T07:07:57.113Z,80.91
2018-08-07T07:10:23.435Z,81.83
2018-08-07T07:12:49.798Z,83.25
2018-08-07T07:15:16.119Z,82.16
2018-08-07T07:17:42.421Z,82.91
2018-08-07T07:20:08.734Z,82.27
2018-08-07T07:22:35.049Z,81.50
2018-08-07T07:25:01.369Z,83.27
2018-08-07T07:27:27.682Z,83.29
2018-08-07T07:29:53.990Z,82.52
2018-08-07T07:32:20.299Z,80.72
2018-08-07T07:34:46.716Z,80.30
2018-08-07T07:37:12.944Z,79.36
2018-08-07T07:39:39.303Z,80.92
2018-08-07T07:42:05.611Z,81.62
2018-08-07T07:44:31.931Z,80.15
2018-08-07T07:46:58.304Z,80.75
2018-08-07T07:49:24.613Z,80.25
2018-08-07T07:51:50.944Z,79.85
2018-08-07T07:54:17.260Z,77.22
2018-08-07T07:56:43.574Z,77.19
2018-08-07T07:59:09.884Z,76.51
2018-08-07T08:01:36.195Z,76.32
2018-08-07T08:04:02.503Z,77.29
2018-08-07T08:06:28.819Z,75.41
2018-08-07T08:08:55.140Z,73.48
2018-08-07T08:11:21.468Z,71.07
2018-08-07T08:13:47.791Z,71.11
2018-08-07T08:16:14.115Z,70.72
2018-08-07T08:18:40.470Z,68.93
2018-08-07T08:21:06.785Z,67.62
2018-08-07T08:23:33.263Z,68.27
2018-08-07T08:25:59.589Z,68.97
2018-08-07T08:28:25.930Z,67.95
2018-08-07T08:30:52.244Z,68.14
2018-08-07T08:33:18.560Z,67.02
2018-08-07T08:35:44.940Z,66.46
2018-08-07T08:38:11.208Z,67.04
2018-08-07T08:40:37.526Z,66.09
2018-08-07T08:43:03.839Z,66.44
2018-08-07T08:45:30.160Z,64.67
2018-08-07T08:47:56.521Z,61.48
2018-08-07T08:50:22.785Z,61.69
2018-08-07T08:52:49.097Z,62.03
2018-08-07T08:55:15.414Z,60.55
2018-08-07T08:57:41.724Z,61.70
2018-08-07T09:00:08.090Z,58.77
2018-08-07T09:02:34.410Z,57.30
2018-08-07T09:05:00.735Z,56.97
2018-08-07T09:07:27.089Z,56.31
2018-08-07T09:09:53.450Z,56.49
2018-08-07T09:12:19.771Z,57.52
2018-08-07T09:14:46.100Z,58.01
2018-08-07T09:17:12.433Z,55.42
2018-08-07T09:19:38.868Z,54.05
2018-08-07T09:22:05.050Z,52.66
2018-08-07T09:24:31.363Z,53.16
2018-08-07T09:26:57.709Z,51.84
2018-08-07T09:29:24.016Z,51.98
2018-08-07T09:31:50.402Z,51.67
2018-08-07T09:34:16.651Z,52.63
2018-08-07T09:36:42.971Z,52.18
2018-08-07T09:39:09.280Z,51.31
2018-08-07T09:41:35.605Z,50.49
2018-08-07T09:44:01.923Z,49.43
2018-08-07T09:46:28.260Z,46.04
2018-08-07T09:48:54.560Z,45.86
2018-08-07T09:51:20.879Z,43.90
2018-08-07T09:53:47.186Z,43.33
2018-08-07T09:56:13.500Z,43.70
2018-08-07T09:58:39.868Z,41.70
2018-08-07T10:01:06.142Z,42.64
2018-08-07T10:03:32.456Z,42.84
2018-08-07T10:05:58.784Z,39.74
2018-08-07T10:08:25.110Z,40.55
2018-08-07T10:10:51.483Z,38.71
2018-08-07T10:13:17.760Z,36.26
2018-08-07T10:15:44.123Z,35.97
2018-08-07T10:18:10.481Z,36.93
2018-08-07T10:20:36.758Z,36.87
2018-08-07T10:23:03.109Z,38.21
2018-08-07T10:25:29.432Z,37.73
2018-08-07T10:27:55.763Z,37.03
2018-08-07T10:30:22.113Z,37.71
2018-08-07T10:32:48.388Z,37.67
2018-08-07T10:35:14.703Z,38.13
2018-08-07T10:37:41.037Z,37.53
2018-08-07T10:40:07.461Z,39.12
2018-08-07T10:42:33.793Z,36.44
2018-08-07T10:45:00.107Z,37.72
2018-08-07T10:47:26.482Z,37.94
2018-08-07T10:49:52.824Z,37.06
2018-08-07T10:52:19.198Z,35.83
2018-08-07T10:54:45.474Z,35.90
2018-08-07T10:57:11.797Z,35.75
2018-08-07T10:59:38.193Z,35.14
2018-08-07T11:02:04.496Z,33.95
2018-08-07T11:04:30.813Z,33.89
2018-08-07T11:06:57.147Z,34.02
2018-08-07T11:09:23.506Z,34.77
2018-08-07T11:11:49.899Z,34.00
2018-08-07T11:14:16.233Z,33.20
2018-08-07T11:16:42.551Z,33.34
2018-08-07T11:19:08.867Z,33.23
2018-08-07T11:21:35.187Z,33.43
2018-08-07T11:24:01.516Z,33.36
2018-08-07T11:26:27.858Z,33.67
2018-08-07T11:28:54.351Z,34.55
2018-08-07T11:31:20.692Z,32.84
2018-08-07T11:33:47.007Z,32.94
2018-08-07T11:36:13.321Z,33.43
2018-08-07T11:38:39.637Z,33.65
2018-08-07T11:41:06.035Z,33.29
2018-08-07T11:43:32.377Z,33.81
2018-08-07T11:45:58.720Z,34.48
2018-08-07T11:48:25.116Z,34.89
2018-08-07T11:50:51.358Z,35.02
2018-08-07T11:53:17.692Z,34.42
2018-08-07T11:55:44.016Z,33.60
2018-08-07T11:58:11.336Z,33.80
2018-08-07T12:00:37.655Z,33.80
2018-08-07T12:03:03.993Z,34.13
2018-08-07T12:05:30.336Z,34.42
2018-08-07T12:07:56.670Z,33.99
2018-08-07T12:10:22.990Z,33.37
2018-08-07T12:12:49.301Z,33.24
2018-08-07T12:15:15.671Z,33.64
2018-08-07T12:17:41.984Z,33.70
2018-08-07T12:20:08.380Z,33.84
2018-08-07T12:22:34.713Z,32.71
2018-08-07T12:25:01.031Z,33.56
2018-08-07T12:27:27.352Z,34.10
2018-08-07T12:29:53.719Z,34.97
2018-08-07T12:32:20.052Z,32.42
2018-08-07T12:34:46.365Z,32.39
2018-08-07T12:37:12.674Z,32.18
2018-08-07T12:39:39.008Z,32.35
2018-08-07T12:42:05.346Z,31.34
2018-08-07T12:44:31.675Z,32.41
2018-08-07T12:46:57.988Z,32.18
2018-08-07T12:49:24.347Z,31.56
2018-08-07T12:51:50.660Z,31.33
2018-08-07T12:54:16.973Z,30.95
2018-08-07T12:56:43.285Z,30.89
2018-08-07T12:59:09.602Z,32.91
2018-08-07T13:01:35.955Z,34.59
2018-08-07T13:06:28.610Z,40.05
2018-08-07T13:08:54.943Z,41.40
2018-08-07T13:11:21.339Z,42.24
2018-08-07T13:13:47.665Z,42.74
2018-08-07T13:16:13.981Z,43.56
2018-08-07T13:18:40.312Z,44.57
2018-08-07T13:21:06.655Z,45.15
2018-08-07T13:23:32.993Z,45.59
2018-08-07T13:25:59.324Z,45.42
2018-08-07T13:28:25.666Z,45.63
2018-08-07T13:30:51.980Z,46.46
2018-08-07T13:33:18.307Z,46.93
2018-08-07T13:35:44.891Z,47.54
2018-08-07T13:38:11.260Z,48.09
2018-08-07T13:40:37.614Z,48.73
2018-08-07T13:43:03.889Z,49.37
2018-08-07T13:45:30.211Z,49.56
2018-08-07T13:47:56.549Z,49.03
2018-08-07T13:50:22.873Z,49.15
2018-08-07T13:52:49.182Z,49.17
2018-08-07T13:55:15.504Z,48.80
2018-08-07T13:57:41.825Z,48.63
2018-08-07T14:00:08.183Z,48.73
2018-08-07T14:02:34.497Z,48.98
2018-08-07T14:05:00.870Z,49.39
2018-08-07T14:07:27.188Z,49.80
2018-08-07T14:09:53.556Z,49.85
2018-08-07T14:12:19.930Z,49.27
2018-08-07T14:14:46.246Z,49.24
2018-08-07T14:17:12.566Z,48.80
2018-08-07T14:19:38.959Z,48.90
2018-08-07T14:22:05.285Z,48.13
2018-08-07T14:24:31.608Z,47.84
2018-08-07T14:26:57.939Z,46.84
2018-08-07T14:29:24.304Z,45.60
2018-08-07T14:31:50.631Z,44.94
2018-08-07T14:34:16.976Z,45.32
2018-08-07T14:36:43.362Z,45.48
2018-08-07T14:39:09.651Z,45.32
2018-08-07T14:41:35.971Z,45.50
2018-08-07T14:44:02.332Z,45.83
2018-08-07T14:46:28.685Z,45.69
2018-08-07T14:48:55.013Z,45.27
2018-08-07T14:51:21.347Z,45.06
2018-08-07T14:53:47.700Z,45.13
2018-08-07T14:56:14.021Z,44.82
2018-08-07T14:58:40.340Z,44.63
2018-08-07T15:01:06.656Z,44.77
2018-08-07T15:03:32.964Z,44.63
2018-08-07T15:05:59.302Z,45.04
2018-08-07T15:08:25.625Z,45.18
2018-08-07T15:10:51.916Z,45.84
2018-08-07T15:13:18.239Z,46.13
2018-08-07T15:15:44.546Z,46.43
2018-08-07T15:18:10.846Z,46.87
2018-08-07T15:20:37.238Z,46.78
2018-08-07T15:23:03.467Z,47.14
2018-08-07T15:25:29.780Z,46.65
2018-08-07T15:27:56.100Z,47.31
2018-08-07T15:30:22.397Z,48.20
2018-08-07T15:32:48.713Z,48.11
2018-08-07T15:35:15.049Z,48.17
2018-08-07T15:37:41.371Z,47.74
2018-08-07T15:40:07.679Z,48.04
2018-08-07T15:42:34.035Z,46.67
2018-08-07T15:45:00.349Z,47.27
2018-08-07T15:47:26.695Z,47.31
2018-08-07T15:49:52.963Z,47.32
2018-08-07T15:52:19.334Z,47.19
2018-08-07T15:54:45.639Z,47.18
2018-08-07T15:57:11.953Z,47.25
2018-08-07T15:59:38.264Z,47.20
2018-08-07T16:02:04.580Z,47.39
2018-08-07T16:04:30.893Z,47.83
2018-08-07T16:06:57.225Z,48.29
2018-08-07T16:09:23.558Z,48.32
2018-08-07T16:11:49.867Z,48.05
2018-08-07T16:14:16.179Z,48.06
2018-08-07T16:16:42.574Z,48.56
2018-08-07T16:19:08.833Z,47.64
2018-08-07T16:21:35.152Z,48.70
2018-08-07T16:24:01.495Z,48.26
2018-08-07T16:26:27.792Z,48.44
2018-08-07T16:28:54.106Z,47.90
2018-08-07T16:31:20.444Z,48.53
2018-08-07T16:33:46.805Z,48.97
2018-08-07T16:36:13.122Z,49.70
2018-08-07T16:38:39.442Z,49.47
2018-08-07T16:41:05.749Z,49.99
2018-08-07T16:43:32.070Z,49.90
2018-08-07T16:45:58.373Z,49.98
2018-08-07T16:48:24.685Z,49.68
2018-08-07T16:50:50.994Z,51.04
2018-08-07T16:53:17.349Z,51.32
2018-08-07T16:55:43.635Z,51.46
2018-08-07T16:58:09.957Z,51.75
2018-08-07T17:00:36.307Z,51.84
2018-08-07T17:03:02.623Z,52.71
2018-08-07T17:05:28.941Z,53.70
2018-08-07T17:07:55.275Z,52.93
2018-08-07T17:10:21.642Z,52.88
2018-08-07T17:12:47.946Z,53.52
2018-08-07T17:15:14.256Z,54.47
2018-08-07T17:17:40.584Z,54.10
2018-08-07T17:20:06.897Z,53.65
2018-08-07T17:22:33.265Z,54.08
2018-08-07T17:24:59.622Z,54.76
2018-08-07T17:27:25.991Z,55.95
2018-08-07T17:29:52.307Z,55.45
2018-08-07T17:32:18.649Z,55.91
2018-08-07T17:34:44.964Z,55.73
2018-08-07T17:37:11.283Z,55.85
2018-08-07T17:39:37.630Z,56.71
2018-08-07T17:42:03.909Z,54.99
2018-08-07T17:44:30.225Z,54.31
2018-08-07T17:46:56.544Z,53.74
2018-08-07T17:49:22.848Z,53.48
2018-08-07T17:51:49.172Z,53.51
2018-08-07T17:54:15.480Z,53.08
2018-08-07T17:56:41.792Z,53.25
2018-08-07T17:59:08.116Z,54.36
2018-08-07T18:01:34.453Z,53.69
2018-08-07T18:04:00.779Z,53.81
2018-08-07T18:06:27.118Z,54.77
2018-08-07T18:08:53.412Z,54.32
2018-08-07T18:11:19.733Z,55.22
2018-08-07T18:13:46.047Z,55.45
2018-08-07T18:16:12.364Z,56.05
2018-08-07T18:18:38.771Z,55.77
2018-08-07T18:21:05.052Z,55.87
2018-08-07T18:23:31.365Z,56.17
2018-08-07T18:25:57.677Z,56.16
2018-08-07T18:28:23.997Z,56.21
2018-08-07T18:30:50.316Z,55.96
2018-08-07T18:33:16.621Z,55.95
2018-08-07T18:35:42.976Z,56.46
2018-08-07T18:38:09.293Z,56.22
2018-08-07T18:40:35.642Z,56.45
2018-08-07T18:43:01.953Z,57.09
2018-08-07T18:45:28.268Z,57.40
2018-08-07T18:47:54.579Z,56.93
2018-08-07T18:50:20.953Z,57.10
2018-08-07T18:52:47.266Z,56.91
2018-08-07T18:55:13.586Z,56.96
2018-08-07T18:57:39.897Z,57.13
2018-08-07T19:00:06.219Z,57.20
2018-08-07T19:02:32.583Z,57.21
2018-08-07T19:04:58.897Z,57.38
2018-08-07T19:07:25.216Z,57.51
2018-08-07T19:09:51.538Z,57.45
2018-08-07T19:12:17.863Z,57.38
2018-08-07T19:14:44.230Z,56.86
2018-08-07T19:17:10.544Z,57.56
2018-08-07T19:19:36.856Z,59.60
2018-08-07T19:22:03.189Z,62.78
2018-08-07T19:24:29.516Z,61.78
2018-08-07T19:26:55.832Z,67.70
2018-08-07T19:29:22.145Z,68.01
2018-08-07T19:31:48.472Z,67.61
2018-08-07T19:34:14.801Z,67.34
2018-08-07T19:36:41.107Z,67.67
2018-08-07T19:39:07.438Z,69.71
2018-08-07T19:41:33.770Z,70.96
2018-08-07T19:44:00.089Z,68.37
2018-08-07T19:46:26.391Z,68.52
2018-08-07T19:48:52.712Z,70.91
2018-08-07T19:51:19.034Z,69.16
2018-08-07T19:53:45.361Z,70.43
2018-08-07T19:56:11.677Z,69.68
2018-08-07T19:58:38.003Z,70.28
2018-08-07T20:01:04.308Z,70.14
2018-08-07T20:03:30.625Z,69.82
2018-08-07T20:05:56.949Z,69.76
2018-08-07T20:08:23.299Z,69.80
2018-08-07T20:10:49.721Z,71.17
2018-08-07T20:13:15.995Z,71.48
2018-08-07T20:15:42.308Z,71.16
2018-08-07T20:18:08.637Z,72.02
2018-08-07T20:20:34.944Z,70.91
2018-08-07T20:23:01.261Z,73.03
2018-08-07T20:25:27.591Z,72.71
2018-08-07T20:27:53.901Z,72.57
2018-08-07T20:30:20.259Z,72.32
2018-08-07T20:32:46.528Z,73.61
2018-08-07T20:35:12.890Z,72.46
2018-08-07T20:37:39.304Z,73.30
2018-08-07T20:40:05.538Z,73.36
2018-08-07T20:42:31.854Z,73.56
2018-08-07T20:44:58.179Z,74.33
2018-08-07T20:47:24.497Z,75.38
2018-08-07T20:49:50.807Z,75.44
2018-08-07T20:52:17.182Z,76.11
2018-08-07T20:54:43.493Z,77.15
2018-08-07T20:57:09.806Z,78.27
2018-08-07T20:59:36.129Z,77.98
2018-08-07T21:02:02.456Z,78.12
2018-08-07T21:04:28.779Z,79.05
2018-08-07T21:06:55.121Z,78.27
2018-08-07T21:09:21.463Z,78.91
2018-08-07T21:11:47.802Z,79.42
2018-08-07T21:14:14.143Z,78.61
2018-08-07T21:16:40.513Z,77.71
2018-08-07T21:19:06.838Z,78.08
2018-08-07T21:21:33.194Z,79.63
2018-08-07T21:23:59.529Z,80.33
2018-08-07T21:26:25.852Z,80.14
2018-08-07T21:28:52.195Z,79.99
2018-08-07T21:31:18.548Z,80.30
2018-08-07T21:33:44.887Z,80.36
2018-08-07T21:36:11.229Z,80.55
2018-08-07T21:38:37.582Z,80.01
2018-08-07T21:41:03.939Z,80.57
2018-08-07T21:43:30.260Z,81.03
2018-08-07T21:45:56.600Z,81.64
2018-08-07T21:48:23.004Z,81.72
2018-08-07T21:50:49.355Z,81.91
2018-08-07T21:53:15.695Z,82.75
2018-08-07T21:55:42.049Z,81.15
2018-08-07T21:58:08.400Z,81.72
2018-08-07T22:00:34.724Z,82.90
2018-08-07T22:03:01.037Z,82.43
2018-08-07T22:05:27.393Z,81.44
2018-08-07T22:07:53.705Z,80.15
2018-08-07T22:10:20.021Z,78.81
2018-08-07T22:12:46.375Z,78.74
2018-08-07T22:15:12.680Z,78.87
2018-08-07T22:17:39.004Z,78.95
2018-08-07T22:20:05.347Z,79.24
2018-08-07T22:22:31.691Z,76.88
2018-08-07T22:24:58.031Z,76.94
2018-08-07T22:27:24.351Z,77.49
2018-08-07T22:29:50.692Z,77.24
2018-08-07T22:32:17.031Z,77.05
2018-08-07T22:34:43.367Z,77.48
2018-08-07T22:37:09.752Z,78.55
2018-08-07T22:39:36.060Z,78.50
2018-08-07T22:42:02.372Z,78.76
2018-08-07T22:44:28.687Z,79.49
2018-08-07T22:46:54.991Z,79.55
2018-08-07T22:49:21.341Z,79.96
2018-08-07T22:51:47.653Z,80.33
2018-08-07T22:54:13.968Z,80.75
2018-08-07T22:56:40.276Z,81.53
2018-08-07T22:59:06.592Z,81.72
2018-08-07T23:01:32.899Z,83.17
2018-08-07T23:03:59.206Z,84.26
2018-08-07T23:06:25.520Z,84.56
2018-08-07T23:08:51.840Z,84.82
2018-08-07T23:11:18.201Z,84.63
2018-08-07T23:13:44.508Z,84.81
2018-08-07T23:16:10.819Z,84.01
2018-08-07T23:18:37.126Z,83.91
2018-08-07T23:21:03.443Z,84.02
2018-08-07T23:23:29.766Z,83.45
2018-08-07T23:25:56.075Z,84.05
2018-08-07T23:28:22.432Z,84.18
2018-08-07T23:30:48.752Z,82.47
2018-08-07T23:33:15.071Z,81.79
2018-08-07T23:35:41.378Z,81.38
2018-08-07T23:38:07.689Z,81.03
2018-08-07T23:40:34.002Z,81.78
2018-08-07T23:43:00.318Z,81.79
2018-08-07T23:45:26.713Z,82.39
2018-08-07T23:47:52.975Z,82.50
2018-08-07T23:50:19.286Z,80.83
2018-08-07T23:52:45.598Z,81.23
2018-08-07T23:55:11.914Z,81.08
2018-08-07T23:57:38.229Z,81.85
